sensor_id;sensor_type;location;lat;lon;timestamp;pressure;altitude;pressure_sealevel;temperature;humidity
67517;BME280;68821;59.134;37.894;2023-12-04T00:02:01;99251.44;;;-5.41;78.87
67517;BME280;68821;59.134;37.894;2023-12-04T00:04:27;99254.81;;;-5.40;78.65
67517;BME280;68821;59.134;37.894;2023-12-04T00:06:54;99255.78;;;-5.38;78.96
67517;BME280;68821;59.134;37.894;2023-12-04T00:09:20;99245.22;;;-5.48;78.76
67517;BME280;68821;59.134;37.894;2023-12-04T00:11:46;99247.13;;;-5.43;78.86
67517;BME280;68821;59.134;37.894;2023-12-04T00:14:12;99250.50;;;-5.43;78.53
67517;BME280;68821;59.134;37.894;2023-12-04T00:16:38;99254.91;;;-5.39;79.15
67517;BME280;68821;59.134;37.894;2023-12-04T00:19:04;99249.06;;;-5.39;79.15
67517;BME280;68821;59.134;37.894;2023-12-04T00:21:30;99250.66;;;-5.40;79.12
67517;BME280;68821;59.134;37.894;2023-12-04T00:23:56;99252.41;;;-5.39;78.39
67517;BME280;68821;59.134;37.894;2023-12-04T00:26:22;99244.03;;;-5.39;78.29
67517;BME280;68821;59.134;37.894;2023-12-04T00:28:48;99235.84;;;-5.37;78.49
67517;BME280;68821;59.134;37.894;2023-12-04T00:31:14;99242.66;;;-5.34;79.12
67517;BME280;68821;59.134;37.894;2023-12-04T00:33:40;99244.31;;;-5.35;78.22
67517;BME280;68821;59.134;37.894;2023-12-04T00:36:06;99240.06;;;-5.36;78.88
67517;BME280;68821;59.134;37.894;2023-12-04T00:38:33;99241.72;;;-5.36;79.02
67517;BME280;68821;59.134;37.894;2023-12-04T00:40:59;99232.19;;;-5.42;78.77
67517;BME280;68821;59.134;37.894;2023-12-04T00:43:24;99233.34;;;-5.37;78.51
67517;BME280;68821;59.134;37.894;2023-12-04T00:45:51;99238.44;;;-5.35;78.38
67517;BME280;68821;59.134;37.894;2023-12-04T00:48:17;99237.66;;;-5.34;78.63
67517;BME280;68821;59.134;37.894;2023-12-04T00:50:43;99236.69;;;-5.36;78.81
67517;BME280;68821;59.134;37.894;2023-12-04T00:53:09;99235.75;;;-5.38;78.89
67517;BME280;68821;59.134;37.894;2023-12-04T00:55:35;99239.78;;;-5.40;78.67
67517;BME280;68821;59.134;37.894;2023-12-04T00:58:01;99242.13;;;-5.43;78.80
67517;BME280;68821;59.134;37.894;2023-12-04T01:00:27;99231.03;;;-5.47;78.36
67517;BME280;68821;59.134;37.894;2023-12-04T01:02:53;99233.66;;;-5.46;79.08
67517;BME280;68821;59.134;37.894;2023-12-04T01:05:19;99242.88;;;-5.44;78.90
67517;BME280;68821;59.134;37.894;2023-12-04T01:07:45;99234.69;;;-5.42;79.17
67517;BME280;68821;59.134;37.894;2023-12-04T01:10:11;99235.75;;;-5.38;78.72
67517;BME280;68821;59.134;37.894;2023-12-04T01:12:37;99233.81;;;-5.42;79.12
67517;BME280;68821;59.134;37.894;2023-12-04T01:15:03;99224.75;;;-5.40;78.41
67517;BME280;68821;59.134;37.894;2023-12-04T01:17:29;99232.38;;;-5.39;79.32
67517;BME280;68821;59.134;37.894;2023-12-04T01:19:55;99228.22;;;-5.38;79.13
67517;BME280;68821;59.134;37.894;2023-12-04T01:22:23;99225.81;;;-5.37;78.15
67517;BME280;68821;59.134;37.894;2023-12-04T01:24:49;99229.97;;;-5.37;78.90
67517;BME280;68821;59.134;37.894;2023-12-04T01:27:15;99226.56;;;-5.38;78.69
67517;BME280;68821;59.134;37.894;2023-12-04T01:29:41;99224.00;;;-5.39;78.42
67517;BME280;68821;59.134;37.894;2023-12-04T01:32:07;99224.00;;;-5.39;78.45
67517;BME280;68821;59.134;37.894;2023-12-04T01:34:33;99219.00;;;-5.39;78.44
67517;BME280;68821;59.134;37.894;2023-12-04T01:36:59;99221.50;;;-5.39;78.32
67517;BME280;68821;59.134;37.894;2023-12-04T01:39:25;99221.41;;;-5.41;78.37
67517;BME280;68821;59.134;37.894;2023-12-04T01:41:51;99222.09;;;-5.43;78.76
67517;BME280;68821;59.134;37.894;2023-12-04T01:44:17;99224.50;;;-5.45;78.27
67517;BME280;68821;59.134;37.894;2023-12-04T01:46:43;99228.63;;;-5.46;78.75
67517;BME280;68821;59.134;37.894;2023-12-04T01:49:09;99226.78;;;-5.48;78.78
67517;BME280;68821;59.134;37.894;2023-12-04T01:51:36;99221.03;;;-5.47;78.57
67517;BME280;68821;59.134;37.894;2023-12-04T01:54:03;99221.19;;;-5.44;78.68
67517;BME280;68821;59.134;37.894;2023-12-04T01:56:30;99221.19;;;-5.44;79.03
67517;BME280;68821;59.134;37.894;2023-12-04T01:58:56;99223.81;;;-5.42;78.48
67517;BME280;68821;59.134;37.894;2023-12-04T02:01:23;99221.88;;;-5.47;78.65
67517;BME280;68821;59.134;37.894;2023-12-04T02:03:50;99224.38;;;-5.47;78.99
67517;BME280;68821;59.134;37.894;2023-12-04T02:06:16;99226.91;;;-5.47;78.32
67517;BME280;68821;59.134;37.894;2023-12-04T02:08:43;99236.06;;;-5.47;78.77
67517;BME280;68821;59.134;37.894;2023-12-04T02:11:10;99233.34;;;-5.50;78.71
67517;BME280;68821;59.134;37.894;2023-12-04T02:13:36;99238.94;;;-5.54;78.67
67517;BME280;68821;59.134;37.894;2023-12-04T02:16:04;99236.34;;;-5.56;78.31
67517;BME280;68821;59.134;37.894;2023-12-04T02:18:34;99223.47;;;-5.62;77.99
67517;BME280;68821;59.134;37.894;2023-12-04T02:21:01;99239.34;;;-5.61;78.46
67517;BME280;68821;59.134;37.894;2023-12-04T02:23:28;99228.25;;;-5.65;78.77
67517;BME280;68821;59.134;37.894;2023-12-04T02:25:59;99234.06;;;-5.66;78.40
67517;BME280;68821;59.134;37.894;2023-12-04T02:28:31;99234.63;;;-5.70;78.53
67517;BME280;68821;59.134;37.894;2023-12-04T02:30:58;99236.34;;;-5.69;78.87
67517;BME280;68821;59.134;37.894;2023-12-04T02:33:26;99233.09;;;-5.68;78.23
67517;BME280;68821;59.134;37.894;2023-12-04T02:35:53;99231.81;;;-5.75;77.95
67517;BME280;68821;59.134;37.894;2023-12-04T02:38:21;99239.31;;;-5.75;78.26
67517;BME280;68821;59.134;37.894;2023-12-04T02:40:47;99236.66;;;-5.78;78.11
67517;BME280;68821;59.134;37.894;2023-12-04T02:43:13;99240.81;;;-5.78;78.47
67517;BME280;68821;59.134;37.894;2023-12-04T02:45:39;99245.59;;;-5.81;77.83
67517;BME280;68821;59.134;37.894;2023-12-04T02:48:05;99238.94;;;-5.81;79.02
67517;BME280;68821;59.134;37.894;2023-12-04T02:50:31;99243.31;;;-5.78;79.10
67517;BME280;68821;59.134;37.894;2023-12-04T02:52:57;99249.06;;;-5.79;78.47
67517;BME280;68821;59.134;37.894;2023-12-04T02:55:23;99237.81;;;-5.86;78.23
67517;BME280;68821;59.134;37.894;2023-12-04T02:57:49;99243.94;;;-5.81;78.28
67517;BME280;68821;59.134;37.894;2023-12-04T03:00:16;99227.59;;;-5.89;77.87
67517;BME280;68821;59.134;37.894;2023-12-04T03:02:42;99241.06;;;-5.87;78.27
67517;BME280;68821;59.134;37.894;2023-12-04T03:05:08;99243.00;;;-5.83;78.94
67517;BME280;68821;59.134;37.894;2023-12-04T03:07:34;99241.38;;;-5.82;77.83
67517;BME280;68821;59.134;37.894;2023-12-04T03:10:01;99247.25;;;-5.82;79.05
67517;BME280;68821;59.134;37.894;2023-12-04T03:12:27;99253.22;;;-5.80;78.77
67517;BME280;68821;59.134;37.894;2023-12-04T03:14:53;99245.59;;;-5.81;78.54
67517;BME280;68821;59.134;37.894;2023-12-04T03:17:19;99250.03;;;-5.77;77.82
67517;BME280;68821;59.134;37.894;2023-12-04T03:19:45;99254.44;;;-5.73;78.59
67517;BME280;68821;59.134;37.894;2023-12-04T03:22:12;99246.94;;;-5.73;78.52
67517;BME280;68821;59.134;37.894;2023-12-04T03:24:38;99250.41;;;-5.71;78.19
67517;BME280;68821;59.134;37.894;2023-12-04T03:27:04;99248.88;;;-5.69;78.93
67517;BME280;68821;59.134;37.894;2023-12-04T03:29:30;99243.00;;;-5.70;78.43
67517;BME280;68821;59.134;37.894;2023-12-04T03:31:56;99242.03;;;-5.72;78.40
67517;BME280;68821;59.134;37.894;2023-12-04T03:34:22;99248.88;;;-5.69;78.30
67517;BME280;68821;59.134;37.894;2023-12-04T03:36:48;99247.16;;;-5.70;78.12
67517;BME280;68821;59.134;37.894;2023-12-04T03:39:14;99242.78;;;-5.73;78.06
67517;BME280;68821;59.134;37.894;2023-12-04T03:41:40;99249.28;;;-5.76;78.56
67517;BME280;68821;59.134;37.894;2023-12-04T03:44:06;99252.34;;;-5.80;77.77
67517;BME280;68821;59.134;37.894;2023-12-04T03:46:32;99253.22;;;-5.80;78.15
67517;BME280;68821;59.134;37.894;2023-12-04T03:48:58;99243.56;;;-5.87;78.06
67517;BME280;68821;59.134;37.894;2023-12-04T03:51:24;99258.22;;;-5.80;78.05
67517;BME280;68821;59.134;37.894;2023-12-04T03:53:50;99250.50;;;-5.83;78.52
67517;BME280;68821;59.134;37.894;2023-12-04T03:56:16;99251.38;;;-5.82;78.07
67517;BME280;68821;59.134;37.894;2023-12-04T03:58:42;99251.97;;;-5.87;77.70
67517;BME280;68821;59.134;37.894;2023-12-04T04:01:09;99255.13;;;-5.89;77.73
67517;BME280;68821;59.134;37.894;2023-12-04T04:03:35;99253.19;;;-5.93;78.08
67517;BME280;68821;59.134;37.894;2023-12-04T04:06:01;99259.69;;;-5.97;78.74
67517;BME280;68821;59.134;37.894;2023-12-04T04:08:27;99266.22;;;-5.99;77.52
67517;BME280;68821;59.134;37.894;2023-12-04T04:10:53;99267.09;;;-5.98;78.39
67517;BME280;68821;59.134;37.894;2023-12-04T04:13:19;99267.66;;;-6.02;77.85
67517;BME280;68821;59.134;37.894;2023-12-04T04:15:45;99266.81;;;-6.03;78.47
67517;BME280;68821;59.134;37.894;2023-12-04T04:18:11;99269.31;;;-6.03;77.62
67517;BME280;68821;59.134;37.894;2023-12-04T04:20:37;99265.84;;;-6.05;78.33
67517;BME280;68821;59.134;37.894;2023-12-04T04:23:03;99270.72;;;-6.07;78.18
67517;BME280;68821;59.134;37.894;2023-12-04T04:25:29;99276.69;;;-6.04;78.27
67517;BME280;68821;59.134;37.894;2023-12-04T04:27:56;99277.56;;;-6.04;78.40
67517;BME280;68821;59.134;37.894;2023-12-04T04:30:22;99271.81;;;-6.03;78.97
67517;BME280;68821;59.134;37.894;2023-12-04T04:32:48;99259.94;;;-6.05;78.30
67517;BME280;68821;59.134;37.894;2023-12-04T04:35:14;99264.94;;;-6.05;77.87
67517;BME280;68821;59.134;37.894;2023-12-04T04:37:40;99262.44;;;-6.05;77.92
67517;BME280;68821;59.134;37.894;2023-12-04T04:40:06;99276.81;;;-6.03;78.53
67517;BME280;68821;59.134;37.894;2023-12-04T04:42:32;99272.66;;;-6.02;77.54
67517;BME280;68821;59.134;37.894;2023-12-04T04:44:58;99274.38;;;-6.01;77.99
67517;BME280;68821;59.134;37.894;2023-12-04T04:47:24;99271.22;;;-5.99;77.61
67517;BME280;68821;59.134;37.894;2023-12-04T04:49:50;99274.38;;;-6.01;77.74
67517;BME280;68821;59.134;37.894;2023-12-04T04:52:16;99275.16;;;-6.02;78.31
67517;BME280;68821;59.134;37.894;2023-12-04T04:54:42;99281.59;;;-6.06;78.35
67517;BME280;68821;59.134;37.894;2023-12-04T04:57:08;99278.69;;;-6.12;77.23
67517;BME280;68821;59.134;37.894;2023-12-04T04:59:34;99276.75;;;-6.16;77.46
67517;BME280;68821;59.134;37.894;2023-12-04T05:02:00;99276.00;;;-6.15;77.45
67517;BME280;68821;59.134;37.894;2023-12-04T05:04:26;99280.06;;;-6.17;77.58
67517;BME280;68821;59.134;37.894;2023-12-04T05:06:52;99279.09;;;-6.19;78.49
67517;BME280;68821;59.134;37.894;2023-12-04T05:09:23;99273.75;;;-6.24;78.80
67517;BME280;68821;59.134;37.894;2023-12-04T05:11:49;99283.00;;;-6.23;78.44
67517;BME280;68821;59.134;37.894;2023-12-04T05:14:15;99278.75;;;-6.24;77.75
67517;BME280;68821;59.134;37.894;2023-12-04T05:16:42;99279.53;;;-6.25;77.83
67517;BME280;68821;59.134;37.894;2023-12-04T05:19:08;99282.91;;;-6.24;78.76
67517;BME280;68821;59.134;37.894;2023-12-04T05:21:34;99289.34;;;-6.28;78.21
67517;BME280;68821;59.134;37.894;2023-12-04T05:24:00;99295.22;;;-6.28;77.23
67517;BME280;68821;59.134;37.894;2023-12-04T05:26:26;99297.41;;;-6.32;77.33
67517;BME280;68821;59.134;37.894;2023-12-04T05:28:52;99291.44;;;-6.34;77.37
67517;BME280;68821;59.134;37.894;2023-12-04T05:31:18;99305.69;;;-6.33;77.82
67517;BME280;68821;59.134;37.894;2023-12-04T05:33:44;99305.56;;;-6.35;77.75
67517;BME280;68821;59.134;37.894;2023-12-04T05:36:10;99305.69;;;-6.33;78.05
67517;BME280;68821;59.134;37.894;2023-12-04T05:38:36;99311.53;;;-6.33;77.44
67517;BME280;68821;59.134;37.894;2023-12-04T05:41:02;99315.69;;;-6.33;77.84
67517;BME280;68821;59.134;37.894;2023-12-04T05:43:28;99320.56;;;-6.35;77.25
67517;BME280;68821;59.134;37.894;2023-12-04T05:45:54;99321.03;;;-6.40;78.08
67517;BME280;68821;59.134;37.894;2023-12-04T05:48:20;99324.50;;;-6.38;78.07
67517;BME280;68821;59.134;37.894;2023-12-04T05:50:46;99329.41;;;-6.40;77.16
67517;BME280;68821;59.134;37.894;2023-12-04T05:53:12;99330.16;;;-6.41;78.58
67517;BME280;68821;59.134;37.894;2023-12-04T05:55:38;99326.69;;;-6.43;78.08
67517;BME280;68821;59.134;37.894;2023-12-04T05:58:04;99329.97;;;-6.44;78.33
67517;BME280;68821;59.134;37.894;2023-12-04T06:00:30;99335.28;;;-6.39;77.68
67517;BME280;68821;59.134;37.894;2023-12-04T06:02:56;99328.63;;;-6.39;78.66
67517;BME280;68821;59.134;37.894;2023-12-04T06:05:22;99330.47;;;-6.36;77.28
67517;BME280;68821;59.134;37.894;2023-12-04T06:07:49;99329.81;;;-6.34;78.05
67517;BME280;68821;59.134;37.894;2023-12-04T06:10:15;99327.22;;;-6.35;77.87
67517;BME280;68821;59.134;37.894;2023-12-04T06:12:41;99323.94;;;-6.34;78.53
67517;BME280;68821;59.134;37.894;2023-12-04T06:15:07;99338.38;;;-6.30;77.70
67517;BME280;68821;59.134;37.894;2023-12-04T06:17:33;99340.13;;;-6.29;78.03
67517;BME280;68821;59.134;37.894;2023-12-04T06:19:59;99345.25;;;-6.28;77.55
67517;BME280;68821;59.134;37.894;2023-12-04T06:22:25;99353.59;;;-6.27;77.74
67517;BME280;68821;59.134;37.894;2023-12-04T06:24:52;99344.28;;;-6.30;77.94
67517;BME280;68821;59.134;37.894;2023-12-04T06:27:18;99344.16;;;-6.31;78.07
67517;BME280;68821;59.134;37.894;2023-12-04T06:29:48;99345.56;;;-6.35;77.06
67517;BME280;68821;59.134;37.894;2023-12-04T06:32:15;99355.69;;;-6.33;77.59
67517;BME280;68821;59.134;37.894;2023-12-04T06:34:41;99353.09;;;-6.35;77.93
67517;BME280;68821;59.134;37.894;2023-12-04T06:37:11;99348.19;;;-6.33;77.30
67517;BME280;68821;59.134;37.894;2023-12-04T06:39:39;99340.28;;;-6.39;77.94
67517;BME280;68821;59.134;37.894;2023-12-04T06:42:09;99342.34;;;-6.34;77.84
67517;BME280;68821;59.134;37.894;2023-12-04T06:44:36;99348.06;;;-6.35;77.95
67517;BME280;68821;59.134;37.894;2023-12-04T06:47:03;99352.22;;;-6.35;78.20
67517;BME280;68821;59.134;37.894;2023-12-04T06:49:31;99354.59;;;-6.37;77.95
67517;BME280;68821;59.134;37.894;2023-12-04T06:51:58;99348.75;;;-6.37;77.33
67517;BME280;68821;59.134;37.894;2023-12-04T06:54:25;99352.91;;;-6.38;77.81
67517;BME280;68821;59.134;37.894;2023-12-04T06:56:51;99357.00;;;-6.38;77.04
67517;BME280;68821;59.134;37.894;2023-12-04T06:59:20;99362.00;;;-6.38;77.37
67517;BME280;68821;59.134;37.894;2023-12-04T07:01:46;99367.97;;;-6.36;77.52
67517;BME280;68821;59.134;37.894;2023-12-04T07:04:12;99362.78;;;-6.39;77.95
67517;BME280;68821;59.134;37.894;2023-12-04T07:06:39;99369.72;;;-6.35;77.54
67517;BME280;68821;59.134;37.894;2023-12-04T07:09:06;99372.34;;;-6.34;77.56
67517;BME280;68821;59.134;37.894;2023-12-04T07:11:35;99365.81;;;-6.32;78.12
67517;BME280;68821;59.134;37.894;2023-12-04T07:14:01;99367.34;;;-6.34;78.38
67517;BME280;68821;59.134;37.894;2023-12-04T07:16:27;99373.78;;;-6.24;78.09
67517;BME280;68821;59.134;37.894;2023-12-04T07:18:53;99378.16;;;-6.21;78.49
67517;BME280;68821;59.134;37.894;2023-12-04T07:21:19;99375.72;;;-6.20;77.37
67517;BME280;68821;59.134;37.894;2023-12-04T07:23:45;99379.53;;;-6.13;77.16
67517;BME280;68821;59.134;37.894;2023-12-04T07:26:12;99383.19;;;-6.08;77.55
67517;BME280;68821;59.134;37.894;2023-12-04T07:28:38;99386.88;;;-6.03;77.20
67517;BME280;68821;59.134;37.894;2023-12-04T07:31:04;99393.03;;;-5.98;77.57
67517;BME280;68821;59.134;37.894;2023-12-04T07:33:30;99389.88;;;-5.95;77.40
67517;BME280;68821;59.134;37.894;2023-12-04T07:35:56;99394.50;;;-5.88;77.72
67517;BME280;68821;59.134;37.894;2023-12-04T07:38:22;99394.66;;;-5.85;77.28
67517;BME280;68821;59.134;37.894;2023-12-04T07:40:48;99393.81;;;-5.86;77.16
67517;BME280;68821;59.134;37.894;2023-12-04T07:43:14;99401.44;;;-5.84;77.31
67517;BME280;68821;59.134;37.894;2023-12-04T07:45:43;99403.63;;;-5.89;77.30
67517;BME280;68821;59.134;37.894;2023-12-04T07:48:09;99401.78;;;-5.91;77.66
67517;BME280;68821;59.134;37.894;2023-12-04T07:50:35;99406.59;;;-5.94;77.08
67517;BME280;68821;59.134;37.894;2023-12-04T07:53:03;99407.31;;;-5.97;76.76
67517;BME280;68821;59.134;37.894;2023-12-04T07:55:29;99402.88;;;-6.01;77.26
67517;BME280;68821;59.134;37.894;2023-12-04T07:57:55;99414.69;;;-5.98;77.67
67517;BME280;68821;59.134;37.894;2023-12-04T08:00:22;99428.94;;;-5.97;77.25
67517;BME280;68821;59.134;37.894;2023-12-04T08:02:52;99426.53;;;-5.96;76.95
67517;BME280;68821;59.134;37.894;2023-12-04T08:05:18;99429.97;;;-5.94;76.96
67517;BME280;68821;59.134;37.894;2023-12-04T08:07:44;99423.56;;;-5.90;77.23
67517;BME280;68821;59.134;37.894;2023-12-04T08:10:10;99432.22;;;-5.85;77.03
67517;BME280;68821;59.134;37.894;2023-12-04T08:12:36;99431.75;;;-5.79;77.51
67517;BME280;68821;59.134;37.894;2023-12-04T08:15:04;99431.19;;;-5.75;77.74
67517;BME280;68821;59.134;37.894;2023-12-04T08:17:30;99429.75;;;-5.72;77.79
67517;BME280;68821;59.134;37.894;2023-12-04T08:19:56;99435.06;;;-5.67;77.13
67517;BME280;68821;59.134;37.894;2023-12-04T08:22:22;99427.97;;;-5.61;77.77
67517;BME280;68821;59.134;37.894;2023-12-04T08:24:48;99437.50;;;-5.55;77.79
67517;BME280;68821;59.134;37.894;2023-12-04T08:27:14;99435.97;;;-5.53;76.74
67517;BME280;68821;59.134;37.894;2023-12-04T08:29:40;99433.88;;;-5.47;77.36
67517;BME280;68821;59.134;37.894;2023-12-04T08:32:06;99437.34;;;-5.45;77.78
67517;BME280;68821;59.134;37.894;2023-12-04T08:34:32;99438.41;;;-5.41;76.79
67517;BME280;68821;59.134;37.894;2023-12-04T08:36:58;99443.50;;;-5.40;77.40
67517;BME280;68821;59.134;37.894;2023-12-04T08:39:24;99430.97;;;-5.40;77.51
67517;BME280;68821;59.134;37.894;2023-12-04T08:41:50;99416.44;;;-5.46;76.97
67517;BME280;68821;59.134;37.894;2023-12-04T08:44:16;99438.69;;;-5.37;77.15
67517;BME280;68821;59.134;37.894;2023-12-04T08:46:43;99440.34;;;-5.37;77.30
67517;BME280;68821;59.134;37.894;2023-12-04T08:49:10;99426.34;;;-5.34;77.72
67517;BME280;68821;59.134;37.894;2023-12-04T08:51:36;99436.88;;;-5.26;76.99
67517;BME280;68821;59.134;37.894;2023-12-04T08:54:02;99430.53;;;-5.21;77.06
67517;BME280;68821;59.134;37.894;2023-12-04T08:56:28;99421.66;;;-5.16;77.46
67517;BME280;68821;59.134;37.894;2023-12-04T08:58:55;99429.56;;;-5.10;77.23
67517;BME280;68821;59.134;37.894;2023-12-04T09:01:21;99433.03;;;-5.08;77.27
67517;BME280;68821;59.134;37.894;2023-12-04T09:03:48;99434.97;;;-5.03;77.06
67517;BME280;68821;59.134;37.894;2023-12-04T09:06:14;99435.16;;;-5.00;77.02
67517;BME280;68821;59.134;37.894;2023-12-04T09:08:41;99432.09;;;-4.96;77.13
67517;BME280;68821;59.134;37.894;2023-12-04T09:11:07;99438.34;;;-4.90;77.20
67517;BME280;68821;59.134;37.894;2023-12-04T09:13:33;99435.25;;;-4.86;77.23
67517;BME280;68821;59.134;37.894;2023-12-04T09:16:00;99443.91;;;-4.80;77.14
67517;BME280;68821;59.134;37.894;2023-12-04T09:18:26;99446.72;;;-4.76;77.29
67517;BME280;68821;59.134;37.894;2023-12-04T09:20:52;99449.63;;;-4.70;76.93
67517;BME280;68821;59.134;37.894;2023-12-04T09:23:18;99452.41;;;-4.65;77.19
67517;BME280;68821;59.134;37.894;2023-12-04T09:25:44;99451.81;;;-4.61;77.03
67517;BME280;68821;59.134;37.894;2023-12-04T09:28:10;99448.72;;;-4.57;76.97
67517;BME280;68821;59.134;37.894;2023-12-04T09:30:36;99458.44;;;-4.48;77.14
67517;BME280;68821;59.134;37.894;2023-12-04T09:33:03;99452.16;;;-4.41;77.37
67517;BME280;68821;59.134;37.894;2023-12-04T09:35:29;99455.25;;;-4.32;77.39
67517;BME280;68821;59.134;37.894;2023-12-04T09:37:55;99452.50;;;-4.22;76.84
67517;BME280;68821;59.134;37.894;2023-12-04T09:40:23;99457.31;;;-4.12;76.81
67517;BME280;68821;59.134;37.894;2023-12-04T09:42:49;99455.16;;;-4.06;76.21
67517;BME280;68821;59.134;37.894;2023-12-04T09:45:15;99456.13;;;-4.03;76.82
67517;BME280;68821;59.134;37.894;2023-12-04T09:47:42;99463.81;;;-4.00;76.31
67517;BME280;68821;59.134;37.894;2023-12-04T09:50:08;99459.69;;;-4.00;76.34
67517;BME280;68821;59.134;37.894;2023-12-04T09:52:36;99463.06;;;-3.99;76.78
67517;BME280;68821;59.134;37.894;2023-12-04T09:55:02;99467.41;;;-3.97;76.36
67517;BME280;68821;59.134;37.894;2023-12-04T09:57:29;99470.69;;;-3.98;76.32
67517;BME280;68821;59.134;37.894;2023-12-04T09:59:55;99472.25;;;-4.00;76.45
67517;BME280;68821;59.134;37.894;2023-12-04T10:02:21;99469.81;;;-3.98;76.34
67517;BME280;68821;59.134;37.894;2023-12-04T10:04:48;99469.91;;;-3.97;76.32
67517;BME280;68821;59.134;37.894;2023-12-04T10:07:14;99476.84;;;-3.93;76.00
67517;BME280;68821;59.134;37.894;2023-12-04T10:09:41;99475.13;;;-3.94;76.28
67517;BME280;68821;59.134;37.894;2023-12-04T10:12:07;99479.44;;;-3.91;76.34
67517;BME280;68821;59.134;37.894;2023-12-04T10:14:33;99487.94;;;-3.89;75.80
67517;BME280;68821;59.134;37.894;2023-12-04T10:16:59;99481.88;;;-3.93;76.58
67517;BME280;68821;59.134;37.894;2023-12-04T10:19:39;99482.34;;;-3.98;76.13
67517;BME280;68821;59.134;37.894;2023-12-04T10:22:08;99494.75;;;-4.01;75.54
67517;BME280;68821;59.134;37.894;2023-12-04T10:24:40;99491.88;;;-4.08;75.99
67517;BME280;68821;59.134;37.894;2023-12-04T10:27:09;99499.28;;;-4.09;76.02
67517;BME280;68821;59.134;37.894;2023-12-04T10:29:48;99502.38;;;-4.13;76.10
67517;BME280;68821;59.134;37.894;2023-12-04T10:32:18;99508.97;;;-4.15;75.46
67517;BME280;68821;59.134;37.894;2023-12-04T10:34:50;99502.13;;;-4.18;76.04
67517;BME280;68821;59.134;37.894;2023-12-04T10:37:16;99501.25;;;-4.18;76.16
67517;BME280;68821;59.134;37.894;2023-12-04T10:39:49;99505.22;;;-4.22;75.86
67517;BME280;68821;59.134;37.894;2023-12-04T10:42:29;99509.06;;;-4.27;75.97
67517;BME280;68821;59.134;37.894;2023-12-04T10:44:58;99507.94;;;-4.32;76.05
67517;BME280;68821;59.134;37.894;2023-12-04T10:47:26;99516.16;;;-4.35;75.89
67517;BME280;68821;59.134;37.894;2023-12-04T10:49:53;99517.00;;;-4.34;76.17
67517;BME280;68821;59.134;37.894;2023-12-04T10:52:19;99528.19;;;-4.29;75.97
67517;BME280;68821;59.134;37.894;2023-12-04T10:54:46;99521.53;;;-4.29;76.38
67517;BME280;68821;59.134;37.894;2023-12-04T10:57:13;99528.28;;;-4.28;75.79
67517;BME280;68821;59.134;37.894;2023-12-04T10:59:43;99528.28;;;-4.28;75.76
67517;BME280;68821;59.134;37.894;2023-12-04T11:02:13;99534.09;;;-4.29;75.72
67517;BME280;68821;59.134;37.894;2023-12-04T11:04:49;99527.31;;;-4.30;75.92
67517;BME280;68821;59.134;37.894;2023-12-04T11:07:18;99535.81;;;-4.28;75.98
67517;BME280;68821;59.134;37.894;2023-12-04T11:09:47;99539.16;;;-4.27;76.42
67517;BME280;68821;59.134;37.894;2023-12-04T11:12:18;99544.88;;;-4.30;76.03
67517;BME280;68821;59.134;37.894;2023-12-04T11:14:53;99542.25;;;-4.31;76.00
67517;BME280;68821;59.134;37.894;2023-12-04T11:17:22;99548.19;;;-4.31;76.38
67517;BME280;68821;59.134;37.894;2023-12-04T11:19:57;99551.44;;;-4.32;75.79
67517;BME280;68821;59.134;37.894;2023-12-04T11:22:31;99552.22;;;-4.33;75.45
67517;BME280;68821;59.134;37.894;2023-12-04T11:24:57;99560.50;;;-4.34;75.90
67517;BME280;68821;59.134;37.894;2023-12-04T11:27:24;99560.41;;;-4.35;75.67
67517;BME280;68821;59.134;37.894;2023-12-04T11:29:50;99568.44;;;-4.41;75.68
67517;BME280;68821;59.134;37.894;2023-12-04T11:32:17;99567.84;;;-4.50;75.44
67517;BME280;68821;59.134;37.894;2023-12-04T11:34:51;99564.09;;;-4.57;75.39
67517;BME280;68821;59.134;37.894;2023-12-04T11:37:20;99578.06;;;-4.60;75.07
67517;BME280;68821;59.134;37.894;2023-12-04T11:39:47;99572.66;;;-4.67;76.12
67517;BME280;68821;59.134;37.894;2023-12-04T11:42:25;99569.75;;;-4.73;75.66
67517;BME280;68821;59.134;37.894;2023-12-04T11:44:58;99576.31;;;-4.75;75.54
67517;BME280;68821;59.134;37.894;2023-12-04T11:47:30;99573.41;;;-4.81;75.97
67517;BME280;68821;59.134;37.894;2023-12-04T11:49:58;99582.69;;;-4.80;75.18
67517;BME280;68821;59.134;37.894;2023-12-04T11:52:34;99583.25;;;-4.84;75.90
67517;BME280;68821;59.134;37.894;2023-12-04T11:55:02;99587.31;;;-4.86;75.41
67517;BME280;68821;59.134;37.894;2023-12-04T11:57:33;99593.75;;;-4.90;75.53
67517;BME280;68821;59.134;37.894;2023-12-04T12:00:13;99589.59;;;-4.89;75.84
67517;BME280;68821;59.134;37.894;2023-12-04T12:02:48;99586.78;;;-4.94;75.77
67517;BME280;68821;59.134;37.894;2023-12-04T12:05:15;99589.00;;;-4.98;75.93
67517;BME280;68821;59.134;37.894;2023-12-04T12:07:42;99593.06;;;-5.00;75.75
67517;BME280;68821;59.134;37.894;2023-12-04T12:10:09;99596.13;;;-5.04;75.75
67517;BME280;68821;59.134;37.894;2023-12-04T12:12:36;99589.25;;;-5.07;75.56
67517;BME280;68821;59.134;37.894;2023-12-04T12:15:08;99600.06;;;-5.08;75.79
67517;BME280;68821;59.134;37.894;2023-12-04T12:17:35;99597.25;;;-5.13;75.51
67517;BME280;68821;59.134;37.894;2023-12-04T12:20:01;99592.59;;;-5.20;75.73
67517;BME280;68821;59.134;37.894;2023-12-04T12:22:29;99598.16;;;-5.24;75.31
67517;BME280;68821;59.134;37.894;2023-12-04T12:24:55;99602.09;;;-5.28;75.96
67517;BME280;68821;59.134;37.894;2023-12-04T12:27:21;99603.44;;;-5.33;75.44
67517;BME280;68821;59.134;37.894;2023-12-04T12:29:48;99602.34;;;-5.36;75.03
67517;BME280;68821;59.134;37.894;2023-12-04T12:32:14;99596.06;;;-5.43;75.44
67517;BME280;68821;59.134;37.894;2023-12-04T12:34:40;99608.03;;;-5.39;75.63
67517;BME280;68821;59.134;37.894;2023-12-04T12:37:06;99600.13;;;-5.45;75.39
67517;BME280;68821;59.134;37.894;2023-12-04T12:39:33;99598.72;;;-5.53;75.22
67517;BME280;68821;59.134;37.894;2023-12-04T12:41:59;99586.66;;;-5.59;75.27
67517;BME280;68821;59.134;37.894;2023-12-04T12:44:26;99594.28;;;-5.57;75.54
67517;BME280;68821;59.134;37.894;2023-12-04T12:46:53;99600.59;;;-5.62;75.15
67517;BME280;68821;59.134;37.894;2023-12-04T12:49:19;99604.63;;;-5.64;75.05